Terminal Aerodrome Forecast
Issued by NWS Buffalo, NY

Home | Current Version | Previous Version | Text Only | Print | Product List | Glossary On
Versions: 1 2 3 4 5 6 7 8 9 10 11 12 13 14 15 16 17 18 19 20 21 22 23 24 25 26 27 28
000
FTUS41 KBUF 220500
TAFROC
TAF
KROC 220532Z 2206/2306 05015G23KT P6SM -DZ OVC012
     FM220900 03013KT P6SM -DZ OVC012
     FM221300 02012KT P6SM OVC012
     FM222000 01012G18KT P6SM BKN025
     FM222300 01013G19KT P6SM BKN035=

USA.gov is the U.S. government's official web portal to all federal, state and local government web resources and services.